createdAt,value
2019-03-23T00:00:38.219Z,12.50
2019-03-23T00:03:04.249Z,12.40
2019-03-23T00:05:30.288Z,12.40
2019-03-23T00:07:56.316Z,12.40
2019-03-23T00:10:22.346Z,12.30
2019-03-23T00:12:48.492Z,12.30
2019-03-23T00:15:15.119Z,12.30
2019-03-23T00:17:41.171Z,12.30
2019-03-23T00:20:08.432Z,12.20
2019-03-23T00:22:34.785Z,12.20
2019-03-23T00:25:00.796Z,12.20
2019-03-23T00:27:26.855Z,12.10
2019-03-23T00:29:52.929Z,12.10
2019-03-23T00:32:19.050Z,12.10
2019-03-23T00:34:45.088Z,12.10
2019-03-23T00:37:11.132Z,12.10
2019-03-23T00:39:37.427Z,12.10
2019-03-23T00:42:03.466Z,12.10
2019-03-23T00:44:29.552Z,12.10
2019-03-23T00:46:55.602Z,12.10
2019-03-23T00:49:21.643Z,12.10
2019-03-23T00:51:47.666Z,12.10
2019-03-23T00:54:13.693Z,12.10
2019-03-23T00:56:39.713Z,12.20
2019-03-23T00:59:05.733Z,12.10
2019-03-23T01:01:31.774Z,12.10
2019-03-23T01:03:58.442Z,12.10
2019-03-23T01:06:24.794Z,12.10
2019-03-23T01:08:50.850Z,12.10
2019-03-23T01:11:17.122Z,12.10
2019-03-23T01:13:43.162Z,12.10
2019-03-23T01:16:09.173Z,12.10
2019-03-23T01:18:35.214Z,12.10
2019-03-23T01:21:01.232Z,12.00
2019-03-23T01:23:27.290Z,12.00
2019-03-23T01:25:53.301Z,12.00
2019-03-23T01:28:19.341Z,11.90
2019-03-23T01:30:45.349Z,11.90
2019-03-23T01:33:11.379Z,11.90
2019-03-23T01:35:37.401Z,11.80
2019-03-23T01:38:03.417Z,11.70
2019-03-23T01:40:29.448Z,11.70
2019-03-23T01:42:55.467Z,11.60
2019-03-23T01:45:21.557Z,11.60
2019-03-23T01:47:47.609Z,11.50
2019-03-23T01:50:13.852Z,11.40
2019-03-23T01:52:39.888Z,11.40
2019-03-23T01:55:07.034Z,11.30
2019-03-23T01:57:33.050Z,11.20
2019-03-23T01:59:59.082Z,11.10
2019-03-23T02:02:25.118Z,11.10
2019-03-23T02:04:51.149Z,11.10
2019-03-23T02:07:17.176Z,11.00
2019-03-23T02:09:43.209Z,11.00
2019-03-23T02:12:09.227Z,10.90
2019-03-23T02:14:35.583Z,10.90
2019-03-23T02:17:01.599Z,10.90
2019-03-23T02:19:27.646Z,10.90
2019-03-23T02:21:53.668Z,10.90
2019-03-23T02:24:19.696Z,10.90
2019-03-23T02:26:45.723Z,10.90
2019-03-23T02:29:12.014Z,10.90
2019-03-23T02:31:38.042Z,10.90
2019-03-23T02:34:04.093Z,10.90
2019-03-23T02:36:30.155Z,10.80
2019-03-23T02:38:56.187Z,10.80
2019-03-23T02:41:22.383Z,10.80
2019-03-23T02:43:48.475Z,10.80
2019-03-23T02:46:14.507Z,10.80
2019-03-23T02:48:40.525Z,10.80
2019-03-23T02:51:06.550Z,10.70
2019-03-23T02:53:32.703Z,10.70
2019-03-23T02:55:58.767Z,10.70
2019-03-23T02:58:25.004Z,10.60
2019-03-23T03:00:51.014Z,10.60
2019-03-23T03:03:17.039Z,10.60
2019-03-23T03:05:43.058Z,10.50
2019-03-23T03:08:09.185Z,10.50
2019-03-23T03:10:38.808Z,10.40
2019-03-23T03:13:05.244Z,10.30
2019-03-23T03:15:31.274Z,10.30
2019-03-23T03:17:57.300Z,10.20
2019-03-23T03:20:23.455Z,10.20
2019-03-23T03:22:49.470Z,10.20
2019-03-23T03:25:15.515Z,10.20
2019-03-23T03:27:41.545Z,10.10
2019-03-23T03:30:09.595Z,10.10
2019-03-23T03:32:35.678Z,10.10
2019-03-23T03:35:01.978Z,10.10
2019-03-23T03:37:28.107Z,10.10
2019-03-23T03:39:54.346Z,10.10
2019-03-23T03:42:20.386Z,10.10
2019-03-23T03:44:46.431Z,10.10
2019-03-23T03:47:12.495Z,10.10
2019-03-23T03:49:38.515Z,10.10
2019-03-23T03:52:04.558Z,10.10
2019-03-23T03:54:30.595Z,10.10
2019-03-23T03:56:56.594Z,10.20
2019-03-23T03:59:22.938Z,10.00
2019-03-23T04:01:48.985Z,10.00
2019-03-23T04:04:15.127Z,10.00
2019-03-23T04:06:41.426Z,10.00
2019-03-23T04:09:07.425Z,10.00
2019-03-23T04:11:33.883Z,10.00
2019-03-23T04:14:00.189Z,10.00
2019-03-23T04:16:26.240Z,10.00
2019-03-23T04:18:52.256Z,10.00
2019-03-23T04:21:18.303Z,10.00
2019-03-23T04:23:44.331Z,9.90
2019-03-23T04:26:10.358Z,9.90
2019-03-23T04:28:36.374Z,9.90
2019-03-23T04:31:02.426Z,9.90
2019-03-23T04:33:28.462Z,9.90
2019-03-23T04:35:54.496Z,9.90
2019-03-23T04:38:23.115Z,9.90
2019-03-23T04:40:48.430Z,9.90
2019-03-23T04:43:14.826Z,9.90
2019-03-23T04:45:40.837Z,9.90
2019-03-23T04:48:06.887Z,9.90
2019-03-23T04:50:32.932Z,9.90
2019-03-23T04:52:58.974Z,9.90
2019-03-23T04:55:24.999Z,9.90
2019-03-23T04:57:51.050Z,9.90
2019-03-23T05:00:18.871Z,9.90
2019-03-23T05:02:45.051Z,10.00
2019-03-23T05:05:11.260Z,10.00
2019-03-23T05:07:37.300Z,10.00
2019-03-23T05:10:05.123Z,10.00
2019-03-23T05:12:31.153Z,10.00
2019-03-23T05:14:57.173Z,10.00
2019-03-23T05:17:23.217Z,10.00
2019-03-23T05:19:49.236Z,10.00
2019-03-23T05:22:15.283Z,10.10
2019-03-23T05:24:41.305Z,10.10
2019-03-23T05:27:07.353Z,10.10
2019-03-23T05:29:33.382Z,10.10
2019-03-23T05:31:59.402Z,10.10
2019-03-23T05:34:25.439Z,10.10
2019-03-23T05:36:51.835Z,10.20
2019-03-23T05:39:17.863Z,10.20
2019-03-23T05:41:43.911Z,10.20
2019-03-23T05:44:09.942Z,10.20
2019-03-23T05:46:35.949Z,10.20
2019-03-23T05:49:01.979Z,10.30
2019-03-23T05:51:28.019Z,10.30
2019-03-23T05:53:54.055Z,10.30
2019-03-23T05:56:20.094Z,10.30
2019-03-23T05:58:46.131Z,10.30
2019-03-23T06:01:12.165Z,10.30
2019-03-23T06:03:38.215Z,10.30
2019-03-23T06:06:04.259Z,10.30
2019-03-23T06:08:30.271Z,10.30
2019-03-23T06:10:56.295Z,10.30
2019-03-23T06:13:22.675Z,10.40
2019-03-23T06:15:48.708Z,10.40
2019-03-23T06:18:14.748Z,10.40
2019-03-23T06:20:40.773Z,10.40
2019-03-23T06:23:06.811Z,10.40
2019-03-23T06:25:33.211Z,10.40
2019-03-23T06:27:59.230Z,10.40
2019-03-23T06:30:25.269Z,10.40
2019-03-23T06:32:51.313Z,10.40
2019-03-23T06:35:17.411Z,10.50
2019-03-23T06:37:43.509Z,10.50
2019-03-23T06:40:18.398Z,10.50
2019-03-23T06:42:44.445Z,10.40
2019-03-23T06:45:11.083Z,10.50
2019-03-23T06:47:37.101Z,10.50
2019-03-23T06:50:05.531Z,10.50
2019-03-23T06:52:31.557Z,10.50
2019-03-23T06:54:57.578Z,10.50
2019-03-23T06:57:23.597Z,10.50
2019-03-23T06:59:49.649Z,10.50
2019-03-23T07:02:15.657Z,10.60
2019-03-23T07:04:41.683Z,10.60
2019-03-23T07:07:07.735Z,10.60
2019-03-23T07:09:33.777Z,10.60
2019-03-23T07:11:59.856Z,10.60
2019-03-23T07:14:25.940Z,10.60
2019-03-23T07:16:51.964Z,10.60
2019-03-23T07:19:17.979Z,10.60
2019-03-23T07:21:44.013Z,10.60
2019-03-23T07:24:10.029Z,10.60
2019-03-23T07:26:36.058Z,10.60
2019-03-23T07:29:02.378Z,10.60
2019-03-23T07:31:28.407Z,10.70
2019-03-23T07:33:54.421Z,10.70
2019-03-23T07:36:20.465Z,10.70
2019-03-23T07:38:47.010Z,10.60
2019-03-23T07:41:13.139Z,10.70
2019-03-23T07:43:39.170Z,10.70
2019-03-23T07:46:05.194Z,10.70
2019-03-23T07:48:31.219Z,10.70
2019-03-23T07:50:57.515Z,10.80
2019-03-23T07:53:23.544Z,10.80
2019-03-23T07:55:49.638Z,10.80
2019-03-23T07:58:15.679Z,10.80
2019-03-23T08:00:41.697Z,10.90
2019-03-23T08:03:07.713Z,10.90
2019-03-23T08:05:33.746Z,10.90
2019-03-23T08:07:59.769Z,10.90
2019-03-23T08:10:31.303Z,10.90
2019-03-23T08:12:57.427Z,11.00
2019-03-23T08:15:23.702Z,11.00
2019-03-23T08:17:49.785Z,11.00
2019-03-23T08:20:16.129Z,11.10
2019-03-23T08:22:42.181Z,11.10
2019-03-23T08:25:08.320Z,11.20
2019-03-23T08:27:34.457Z,11.20
2019-03-23T08:30:00.525Z,11.30
2019-03-23T08:32:26.553Z,11.30
2019-03-23T08:34:52.663Z,11.30
2019-03-23T08:37:18.810Z,11.40
2019-03-23T08:39:48.747Z,11.50
2019-03-23T08:42:12.833Z,11.50
2019-03-23T08:44:38.904Z,11.50
2019-03-23T08:47:04.944Z,11.60
2019-03-23T08:49:31.013Z,11.70
2019-03-23T08:51:57.047Z,11.80
2019-03-23T08:54:23.127Z,11.80
2019-03-23T08:56:49.221Z,11.90
2019-03-23T08:59:15.239Z,12.00
2019-03-23T09:01:41.262Z,12.00
2019-03-23T09:04:07.339Z,12.10
2019-03-23T09:06:33.397Z,12.10
2019-03-23T09:08:59.433Z,12.20
2019-03-23T09:11:25.448Z,12.30
2019-03-23T09:13:51.490Z,12.40
2019-03-23T09:16:17.544Z,12.40
2019-03-23T09:18:43.837Z,12.50
2019-03-23T09:21:09.873Z,12.60
2019-03-23T09:23:35.935Z,12.70
2019-03-23T09:26:01.998Z,12.70
2019-03-23T09:28:28.286Z,12.80
2019-03-23T09:30:54.340Z,12.90
2019-03-23T09:33:20.846Z,13.00
2019-03-23T09:35:46.857Z,13.10
2019-03-23T09:38:12.906Z,13.10
2019-03-23T09:40:38.933Z,13.20
2019-03-23T09:43:04.952Z,13.20
2019-03-23T09:45:30.974Z,13.30
2019-03-23T09:47:57.206Z,13.40
2019-03-23T09:50:23.228Z,13.50
2019-03-23T09:52:49.259Z,13.50
2019-03-23T09:55:15.275Z,13.60
2019-03-23T09:57:41.320Z,13.60
2019-03-23T10:00:10.248Z,13.70
2019-03-23T10:02:36.270Z,13.80
2019-03-23T10:05:03.981Z,13.80
2019-03-23T10:07:30.035Z,13.90
2019-03-23T10:09:56.110Z,13.90
2019-03-23T10:12:22.158Z,14.00
2019-03-23T10:14:48.203Z,14.00
2019-03-23T10:17:14.220Z,14.00
2019-03-23T10:19:40.342Z,14.00
2019-03-23T10:22:06.354Z,14.00
2019-03-23T10:24:32.436Z,14.00
2019-03-23T10:26:58.556Z,14.00
2019-03-23T10:29:24.592Z,13.90
2019-03-23T10:31:50.607Z,13.90
2019-03-23T10:34:16.672Z,14.00
2019-03-23T10:36:42.746Z,14.00
2019-03-23T10:39:08.822Z,14.00
2019-03-23T10:41:34.873Z,14.10
2019-03-23T10:44:00.907Z,14.10
2019-03-23T10:46:26.964Z,14.10
2019-03-23T10:48:52.987Z,14.20
2019-03-23T10:51:19.126Z,14.20
2019-03-23T10:53:45.202Z,14.20
2019-03-23T10:56:11.248Z,14.20
2019-03-23T10:58:37.285Z,14.30
2019-03-23T11:01:03.294Z,14.30
2019-03-23T11:03:29.355Z,14.30
2019-03-23T11:05:55.501Z,14.30
2019-03-23T11:08:21.612Z,14.30
2019-03-23T11:10:47.649Z,14.30
2019-03-23T11:13:13.723Z,14.30
2019-03-23T11:15:39.746Z,14.30
2019-03-23T11:18:05.772Z,14.20
2019-03-23T11:20:31.819Z,14.30
2019-03-23T11:22:57.876Z,14.30
2019-03-23T11:25:24.115Z,14.30
2019-03-23T11:27:50.139Z,14.30
2019-03-23T11:30:16.257Z,14.30
2019-03-23T11:32:42.608Z,14.30
2019-03-23T11:35:08.791Z,14.30
2019-03-23T11:37:35.497Z,14.30
2019-03-23T11:40:02.105Z,14.30
2019-03-23T11:42:28.135Z,14.30
2019-03-23T11:44:54.294Z,14.30
2019-03-23T11:47:20.442Z,14.30
2019-03-23T11:49:46.461Z,14.30
2019-03-23T11:52:12.936Z,14.30
2019-03-23T11:54:39.009Z,14.30
2019-03-23T11:57:05.191Z,14.20
2019-03-23T11:59:31.355Z,14.30
2019-03-23T12:01:57.395Z,14.40
2019-03-23T12:04:24.962Z,14.50
2019-03-23T12:06:51.378Z,14.70
2019-03-23T12:09:17.394Z,14.80
2019-03-23T12:11:43.430Z,15.00
2019-03-23T12:14:09.460Z,15.10
2019-03-23T12:16:35.793Z,15.10
2019-03-23T12:19:01.985Z,15.10
2019-03-23T12:21:28.061Z,15.00
2019-03-23T12:23:54.171Z,14.90
2019-03-23T12:26:20.506Z,14.80
2019-03-23T12:28:47.357Z,14.80
2019-03-23T12:31:13.442Z,14.80
2019-03-23T12:33:39.461Z,14.80
2019-03-23T12:36:05.493Z,15.00
2019-03-23T12:38:31.651Z,15.20
2019-03-23T12:40:57.717Z,15.50
2019-03-23T12:43:23.728Z,15.80
2019-03-23T12:45:49.790Z,16.10
2019-03-23T12:48:15.898Z,16.40
2019-03-23T12:50:42.350Z,16.60
2019-03-23T12:53:08.673Z,16.70
2019-03-23T12:55:34.707Z,16.80
2019-03-23T12:58:00.742Z,16.90
2019-03-23T13:00:26.783Z,16.90
2019-03-23T13:02:53.736Z,16.80
2019-03-23T13:05:19.777Z,16.70
2019-03-23T13:07:45.848Z,16.60
2019-03-23T13:10:12.774Z,16.50
2019-03-23T13:12:38.986Z,16.50
2019-03-23T13:15:07.728Z,16.40
2019-03-23T13:17:33.764Z,16.40
2019-03-23T13:19:59.856Z,16.30
2019-03-23T13:22:25.949Z,16.30
2019-03-23T13:24:52.011Z,16.30
2019-03-23T13:27:18.415Z,16.20
2019-03-23T13:29:44.744Z,16.30
2019-03-23T13:32:10.802Z,16.20
2019-03-23T13:34:36.838Z,16.30
2019-03-23T13:37:02.992Z,16.30
2019-03-23T13:39:29.026Z,16.40
2019-03-23T13:41:55.082Z,16.50
2019-03-23T13:44:21.123Z,16.50
2019-03-23T13:46:47.145Z,16.60
2019-03-23T13:49:13.188Z,16.70
2019-03-23T13:51:39.347Z,16.70
2019-03-23T13:54:05.386Z,16.70
2019-03-23T13:56:31.418Z,16.60
2019-03-23T13:58:57.469Z,16.60
2019-03-23T14:01:23.766Z,16.50
2019-03-23T14:03:49.874Z,16.40
2019-03-23T14:06:15.893Z,16.30
2019-03-23T14:08:41.931Z,16.10
2019-03-23T14:11:07.994Z,16.10
2019-03-23T14:13:34.044Z,16.00
2019-03-23T14:16:00.410Z,16.00
2019-03-23T14:18:26.478Z,15.90
2019-03-23T14:20:52.504Z,16.00
2019-03-23T14:23:18.527Z,16.00
2019-03-23T14:25:44.537Z,16.10
2019-03-23T14:28:10.589Z,16.20
2019-03-23T14:30:36.683Z,16.20
2019-03-23T14:33:02.739Z,16.30
2019-03-23T14:35:28.830Z,16.40
2019-03-23T14:37:54.877Z,16.50
2019-03-23T14:40:20.918Z,16.60
2019-03-23T14:42:46.947Z,16.70
2019-03-23T14:45:13.017Z,16.90
2019-03-23T14:47:39.107Z,17.00
2019-03-23T14:50:05.530Z,17.10
2019-03-23T14:52:31.545Z,17.20
2019-03-23T14:54:57.572Z,17.30
2019-03-23T14:57:23.598Z,17.40
2019-03-23T14:59:49.738Z,17.40
2019-03-23T15:02:15.750Z,17.50
2019-03-23T15:04:41.794Z,17.60
2019-03-23T15:07:07.812Z,17.70
2019-03-23T15:09:33.846Z,17.70
2019-03-23T15:11:59.859Z,17.80
2019-03-23T15:14:25.877Z,17.80
2019-03-23T15:16:51.890Z,17.70
2019-03-23T15:19:18.012Z,17.70
2019-03-23T15:21:44.143Z,17.70
2019-03-23T15:24:10.187Z,17.60
2019-03-23T15:26:36.229Z,17.50
2019-03-23T15:29:02.247Z,17.40
2019-03-23T15:31:28.289Z,17.30
2019-03-23T15:33:54.410Z,17.20
2019-03-23T15:36:20.434Z,17.20
2019-03-23T15:38:46.480Z,17.10
2019-03-23T15:41:12.510Z,17.00
2019-03-23T15:43:38.525Z,16.90
2019-03-23T15:46:04.549Z,16.70
2019-03-23T15:48:30.688Z,16.60
2019-03-23T15:50:56.714Z,16.50
2019-03-23T15:53:22.783Z,16.40
2019-03-23T15:55:48.787Z,16.30
2019-03-23T15:58:14.801Z,16.20
2019-03-23T16:00:40.816Z,16.10
2019-03-23T16:03:06.813Z,16.00
2019-03-23T16:05:32.843Z,15.90
2019-03-23T16:07:58.891Z,15.90
2019-03-23T16:10:24.946Z,15.80
2019-03-23T16:12:51.323Z,15.80
2019-03-23T16:15:17.560Z,15.70
2019-03-23T16:17:43.560Z,15.80
2019-03-23T16:20:10.730Z,15.70
2019-03-23T16:22:36.759Z,15.70
2019-03-23T16:25:07.790Z,15.60
2019-03-23T16:27:33.963Z,15.60
2019-03-23T16:29:59.996Z,15.50
2019-03-23T16:32:26.015Z,15.50
2019-03-23T16:34:52.084Z,15.50
2019-03-23T16:37:18.129Z,15.50
2019-03-23T16:39:44.206Z,15.50
2019-03-23T16:42:10.230Z,15.40
2019-03-23T16:44:36.261Z,15.40
2019-03-23T16:47:02.270Z,15.40
2019-03-23T16:49:28.339Z,15.30
2019-03-23T16:51:54.483Z,15.20
2019-03-23T16:54:20.739Z,15.20
2019-03-23T16:56:47.014Z,15.10
2019-03-23T16:59:13.140Z,15.10
2019-03-23T17:01:39.172Z,15.10
2019-03-23T17:04:05.190Z,15.00
2019-03-23T17:06:31.247Z,15.00
2019-03-23T17:08:57.272Z,15.00
2019-03-23T17:11:23.298Z,15.00
2019-03-23T17:13:49.318Z,14.90
2019-03-23T17:16:15.350Z,14.80
2019-03-23T17:18:41.359Z,14.90
2019-03-23T17:21:07.398Z,14.80
2019-03-23T17:23:33.427Z,14.80
2019-03-23T18:34:06.140Z,27.10
2019-03-23T18:36:34.572Z,25.70
2019-03-23T18:39:04.436Z,24.70
2019-03-23T18:41:32.928Z,23.60
2019-03-23T18:44:01.618Z,22.60
2019-03-23T18:46:30.056Z,21.60
2019-03-23T18:48:58.580Z,20.70
2019-03-23T18:51:27.003Z,19.80
2019-03-23T18:53:55.402Z,19.00
2019-03-23T18:56:23.854Z,18.30
2019-03-23T18:58:52.271Z,17.70
2019-03-23T19:01:20.705Z,17.10
2019-03-23T19:03:49.363Z,16.60
2019-03-23T19:06:18.007Z,16.20
2019-03-23T19:08:46.450Z,15.90
2019-03-23T19:11:15.109Z,15.50
2019-03-23T19:13:43.624Z,15.30
2019-03-23T19:16:12.109Z,15.00
2019-03-23T19:18:40.513Z,14.80
2019-03-23T19:21:08.969Z,14.60
2019-03-23T19:23:37.388Z,14.40
2019-03-23T19:26:06.063Z,14.20
2019-03-23T19:28:34.508Z,14.10
2019-03-23T19:31:02.918Z,14.00
2019-03-23T19:33:31.404Z,13.90
2019-03-23T19:35:59.822Z,13.80
2019-03-23T19:38:28.236Z,13.80
2019-03-23T19:40:56.652Z,13.70
2019-03-23T19:43:25.339Z,13.70
2019-03-23T19:45:53.784Z,13.70
2019-03-23T19:48:22.281Z,13.60
2019-03-23T19:50:50.765Z,13.60
2019-03-23T19:53:19.198Z,13.50
2019-03-23T19:55:48.517Z,13.50
2019-03-23T19:58:16.947Z,13.50
2019-03-23T20:00:45.359Z,13.50
2019-03-23T20:03:13.820Z,13.40
2019-03-23T20:05:42.294Z,13.40
2019-03-23T20:08:10.737Z,13.40
2019-03-23T20:10:39.301Z,13.40
2019-03-23T20:13:07.716Z,13.40
2019-03-23T20:15:36.121Z,13.30
2019-03-23T20:18:05.003Z,13.30
2019-03-23T20:20:33.476Z,13.30
2019-03-23T20:23:02.182Z,13.30
2019-03-23T20:25:30.617Z,13.30
2019-03-23T20:27:59.051Z,13.30
2019-03-23T20:30:28.528Z,13.30
2019-03-23T20:32:56.932Z,13.30
2019-03-23T20:35:25.660Z,13.30
2019-03-23T20:37:54.167Z,13.30
2019-03-23T20:40:22.595Z,13.30
2019-03-23T20:42:51.032Z,13.30
2019-03-23T20:45:30.373Z,13.30
2019-03-23T20:47:59.752Z,13.30
2019-03-23T20:50:28.225Z,13.30
2019-03-23T20:52:56.797Z,13.30
2019-03-23T20:55:27.156Z,13.30
2019-03-23T20:57:55.716Z,13.30
2019-03-23T21:00:24.133Z,13.30
2019-03-23T21:02:52.531Z,13.30
2019-03-23T21:05:20.946Z,13.30
2019-03-23T21:07:49.374Z,13.30
2019-03-23T21:10:17.884Z,13.30
2019-03-23T21:12:46.624Z,13.20
2019-03-23T21:15:15.120Z,13.30
2019-03-23T21:17:51.158Z,13.30
2019-03-23T21:20:14.321Z,13.20
2019-03-23T21:22:42.723Z,13.20
2019-03-23T21:25:12.251Z,13.20
2019-03-23T21:27:40.685Z,13.20
2019-03-23T21:30:16.554Z,13.20
2019-03-23T21:32:45.098Z,13.20
2019-03-23T21:35:15.807Z,13.20
2019-03-23T21:37:44.277Z,13.10
2019-03-23T21:40:12.943Z,13.10
2019-03-23T21:42:41.352Z,13.10
2019-03-23T21:45:10.521Z,13.10
2019-03-23T21:47:38.926Z,13.10
2019-03-23T21:50:09.089Z,13.10
2019-03-23T21:52:37.789Z,13.10
2019-03-23T21:55:07.595Z,13.10
2019-03-23T21:57:36.188Z,13.00
2019-03-23T22:00:06.982Z,13.00
2019-03-23T22:02:35.382Z,13.00
2019-03-23T22:05:04.965Z,13.00
2019-03-23T22:07:33.376Z,12.90
2019-03-23T22:10:01.801Z,12.90
2019-03-23T22:12:30.226Z,12.90
2019-03-23T22:14:58.645Z,12.90
2019-03-23T22:17:27.053Z,12.90
2019-03-23T22:19:55.725Z,12.80
2019-03-23T22:22:24.208Z,12.80
2019-03-23T22:24:52.632Z,12.80
2019-03-23T22:27:21.058Z,12.80
2019-03-23T22:29:49.542Z,12.70
2019-03-23T22:32:18.145Z,12.70
2019-03-23T22:34:49.129Z,12.70
2019-03-23T22:37:16.920Z,12.70
2019-03-23T22:39:45.333Z,12.70
2019-03-23T22:42:13.749Z,12.70
2019-03-23T22:44:52.142Z,12.70
2019-03-23T22:47:13.882Z,12.60
2019-03-23T22:49:42.305Z,12.60
2019-03-23T22:52:10.726Z,12.60
2019-03-23T22:54:39.524Z,12.60
2019-03-23T22:57:07.981Z,12.60
2019-03-23T22:59:36.457Z,12.60
2019-03-23T23:02:05.029Z,12.60
2019-03-23T23:04:33.785Z,12.60
2019-03-23T23:07:02.189Z,12.60
2019-03-23T23:09:30.695Z,12.60
2019-03-23T23:11:59.106Z,12.60
2019-03-23T23:14:27.531Z,12.60
2019-03-23T23:16:56.294Z,12.60
2019-03-23T23:19:24.723Z,12.60
2019-03-23T23:21:53.180Z,12.60
2019-03-23T23:24:21.866Z,12.60
2019-03-23T23:26:50.333Z,12.60
2019-03-23T23:29:18.749Z,12.60
2019-03-23T23:31:47.186Z,12.60
2019-03-23T23:34:15.600Z,12.70
2019-03-23T23:36:44.021Z,12.70
2019-03-23T23:39:12.428Z,12.70
2019-03-23T23:41:40.844Z,12.70
2019-03-23T23:44:09.256Z,12.70
2019-03-23T23:46:37.673Z,12.70
2019-03-23T23:49:06.483Z,12.70
2019-03-23T23:51:34.905Z,12.70
2019-03-23T23:54:03.393Z,12.70
2019-03-23T23:56:31.823Z,12.70
2019-03-23T23:59:00.299Z,12.70
